sensor_id;sensor_type;location;lat;lon;timestamp;P1;durP1;ratioP1;P2;durP2;ratioP2
10132;SDS011;5106;50.926;7.080;2024-01-15T00:02:12;16.87;;;10.53;;
10132;SDS011;5106;50.926;7.080;2024-01-15T00:04:38;22.53;;;10.57;;
10132;SDS011;5106;50.926;7.080;2024-01-15T00:07:04;20.20;;;11.20;;
10132;SDS011;5106;50.926;7.080;2024-01-15T00:09:33;19.60;;;11.63;;
10132;SDS011;5106;50.926;7.080;2024-01-15T00:11:59;20.57;;;11.23;;
10132;SDS011;5106;50.926;7.080;2024-01-15T00:14:25;23.87;;;12.03;;
10132;SDS011;5106;50.926;7.080;2024-01-15T00:16:51;20.77;;;11.57;;
10132;SDS011;5106;50.926;7.080;2024-01-15T00:19:17;22.03;;;11.97;;
10132;SDS011;5106;50.926;7.080;2024-01-15T00:21:43;20.63;;;11.57;;
10132;SDS011;5106;50.926;7.080;2024-01-15T00:24:09;21.50;;;12.57;;
10132;SDS011;5106;50.926;7.080;2024-01-15T00:26:35;19.67;;;11.87;;
10132;SDS011;5106;50.926;7.080;2024-01-15T00:29:01;23.10;;;12.80;;
10132;SDS011;5106;50.926;7.080;2024-01-15T00:31:28;21.73;;;11.97;;
10132;SDS011;5106;50.926;7.080;2024-01-15T00:33:54;22.70;;;12.87;;
10132;SDS011;5106;50.926;7.080;2024-01-15T00:36:20;24.33;;;12.40;;
10132;SDS011;5106;50.926;7.080;2024-01-15T00:38:46;22.60;;;12.27;;
10132;SDS011;5106;50.926;7.080;2024-01-15T00:41:12;23.07;;;12.77;;
10132;SDS011;5106;50.926;7.080;2024-01-15T00:43:38;19.90;;;11.20;;
10132;SDS011;5106;50.926;7.080;2024-01-15T00:46:04;24.00;;;13.27;;
10132;SDS011;5106;50.926;7.080;2024-01-15T00:48:30;22.67;;;12.87;;
10132;SDS011;5106;50.926;7.080;2024-01-15T00:50:56;24.67;;;13.00;;
10132;SDS011;5106;50.926;7.080;2024-01-15T00:53:21;25.27;;;13.00;;
10132;SDS011;5106;50.926;7.080;2024-01-15T00:55:47;25.47;;;13.87;;
10132;SDS011;5106;50.926;7.080;2024-01-15T00:58:13;24.90;;;13.40;;
10132;SDS011;5106;50.926;7.080;2024-01-15T01:00:39;25.47;;;13.07;;
10132;SDS011;5106;50.926;7.080;2024-01-15T01:03:05;25.43;;;13.33;;
10132;SDS011;5106;50.926;7.080;2024-01-15T01:05:31;23.93;;;13.43;;
10132;SDS011;5106;50.926;7.080;2024-01-15T01:07:58;25.03;;;13.60;;
10132;SDS011;5106;50.926;7.080;2024-01-15T01:10:24;24.60;;;14.00;;
10132;SDS011;5106;50.926;7.080;2024-01-15T01:12:50;26.70;;;14.23;;
10132;SDS011;5106;50.926;7.080;2024-01-15T01:15:15;23.57;;;13.90;;
10132;SDS011;5106;50.926;7.080;2024-01-15T01:17:41;24.00;;;14.23;;
10132;SDS011;5106;50.926;7.080;2024-01-15T01:20:07;26.50;;;13.50;;
10132;SDS011;5106;50.926;7.080;2024-01-15T01:22:34;26.03;;;13.13;;
10132;SDS011;5106;50.926;7.080;2024-01-15T01:25:00;28.03;;;14.60;;
10132;SDS011;5106;50.926;7.080;2024-01-15T01:27:25;29.00;;;14.57;;
10132;SDS011;5106;50.926;7.080;2024-01-15T01:29:51;26.77;;;14.90;;
10132;SDS011;5106;50.926;7.080;2024-01-15T01:32:17;27.60;;;13.43;;
10132;SDS011;5106;50.926;7.080;2024-01-15T01:34:42;26.70;;;14.03;;
10132;SDS011;5106;50.926;7.080;2024-01-15T01:37:09;26.87;;;14.50;;
10132;SDS011;5106;50.926;7.080;2024-01-15T01:39:35;23.53;;;13.53;;
10132;SDS011;5106;50.926;7.080;2024-01-15T01:42:00;26.60;;;14.27;;
10132;SDS011;5106;50.926;7.080;2024-01-15T01:44:26;27.43;;;14.53;;
10132;SDS011;5106;50.926;7.080;2024-01-15T01:46:51;25.87;;;13.23;;
10132;SDS011;5106;50.926;7.080;2024-01-15T01:49:18;28.03;;;13.60;;
10132;SDS011;5106;50.926;7.080;2024-01-15T01:51:44;24.67;;;13.50;;
10132;SDS011;5106;50.926;7.080;2024-01-15T01:54:09;24.53;;;13.70;;
10132;SDS011;5106;50.926;7.080;2024-01-15T01:56:38;26.83;;;13.60;;
10132;SDS011;5106;50.926;7.080;2024-01-15T01:59:05;26.23;;;14.20;;
10132;SDS011;5106;50.926;7.080;2024-01-15T02:01:32;26.27;;;14.20;;
10132;SDS011;5106;50.926;7.080;2024-01-15T02:03:58;29.20;;;14.73;;
10132;SDS011;5106;50.926;7.080;2024-01-15T02:06:24;26.07;;;15.47;;
10132;SDS011;5106;50.926;7.080;2024-01-15T02:08:50;27.13;;;15.23;;
10132;SDS011;5106;50.926;7.080;2024-01-15T02:11:15;27.90;;;14.40;;
10132;SDS011;5106;50.926;7.080;2024-01-15T02:13:41;29.00;;;15.53;;
10132;SDS011;5106;50.926;7.080;2024-01-15T02:16:06;28.10;;;14.20;;
10132;SDS011;5106;50.926;7.080;2024-01-15T02:18:39;25.40;;;14.23;;
10132;SDS011;5106;50.926;7.080;2024-01-15T02:21:09;29.33;;;14.87;;
10132;SDS011;5106;50.926;7.080;2024-01-15T02:23:35;28.40;;;14.63;;
10132;SDS011;5106;50.926;7.080;2024-01-15T02:26:01;26.90;;;14.80;;
10132;SDS011;5106;50.926;7.080;2024-01-15T02:28:27;28.23;;;13.57;;
10132;SDS011;5106;50.926;7.080;2024-01-15T02:30:53;25.13;;;13.77;;
10132;SDS011;5106;50.926;7.080;2024-01-15T02:33:18;25.40;;;14.00;;
10132;SDS011;5106;50.926;7.080;2024-01-15T02:35:44;27.07;;;14.60;;
10132;SDS011;5106;50.926;7.080;2024-01-15T02:38:11;24.33;;;13.67;;
10132;SDS011;5106;50.926;7.080;2024-01-15T02:40:38;25.13;;;14.57;;
10132;SDS011;5106;50.926;7.080;2024-01-15T02:43:03;24.73;;;13.73;;
10132;SDS011;5106;50.926;7.080;2024-01-15T02:45:29;22.57;;;13.77;;
10132;SDS011;5106;50.926;7.080;2024-01-15T02:47:55;23.27;;;12.77;;
10132;SDS011;5106;50.926;7.080;2024-01-15T02:50:21;24.47;;;13.30;;
10132;SDS011;5106;50.926;7.080;2024-01-15T02:52:46;23.77;;;12.83;;
10132;SDS011;5106;50.926;7.080;2024-01-15T02:55:12;26.07;;;13.73;;
10132;SDS011;5106;50.926;7.080;2024-01-15T02:57:37;26.13;;;13.83;;
10132;SDS011;5106;50.926;7.080;2024-01-15T03:00:03;25.73;;;13.83;;
10132;SDS011;5106;50.926;7.080;2024-01-15T03:02:29;24.87;;;12.87;;
10132;SDS011;5106;50.926;7.080;2024-01-15T03:04:56;23.10;;;12.87;;
10132;SDS011;5106;50.926;7.080;2024-01-15T03:07:22;25.30;;;13.03;;
10132;SDS011;5106;50.926;7.080;2024-01-15T03:09:48;26.03;;;13.37;;
10132;SDS011;5106;50.926;7.080;2024-01-15T03:12:13;23.67;;;13.10;;
10132;SDS011;5106;50.926;7.080;2024-01-15T03:14:39;24.40;;;13.63;;
10132;SDS011;5106;50.926;7.080;2024-01-15T03:17:04;22.33;;;12.30;;
10132;SDS011;5106;50.926;7.080;2024-01-15T03:19:30;24.97;;;13.87;;
10132;SDS011;5106;50.926;7.080;2024-01-15T03:21:56;23.73;;;12.80;;
10132;SDS011;5106;50.926;7.080;2024-01-15T03:24:21;21.03;;;12.47;;
10132;SDS011;5106;50.926;7.080;2024-01-15T03:26:47;23.30;;;13.23;;
10132;SDS011;5106;50.926;7.080;2024-01-15T03:29:13;21.07;;;13.00;;
10132;SDS011;5106;50.926;7.080;2024-01-15T03:31:38;19.50;;;11.90;;
10132;SDS011;5106;50.926;7.080;2024-01-15T03:34:04;19.83;;;12.00;;
10132;SDS011;5106;50.926;7.080;2024-01-15T03:36:29;19.93;;;12.23;;
10132;SDS011;5106;50.926;7.080;2024-01-15T03:38:55;20.33;;;12.47;;
10132;SDS011;5106;50.926;7.080;2024-01-15T03:41:20;20.27;;;12.03;;
10132;SDS011;5106;50.926;7.080;2024-01-15T03:43:46;20.30;;;11.77;;
10132;SDS011;5106;50.926;7.080;2024-01-15T03:46:11;21.07;;;11.90;;
10132;SDS011;5106;50.926;7.080;2024-01-15T03:48:37;22.47;;;12.77;;
10132;SDS011;5106;50.926;7.080;2024-01-15T03:51:03;22.27;;;12.50;;
10132;SDS011;5106;50.926;7.080;2024-01-15T03:53:29;22.20;;;11.73;;
10132;SDS011;5106;50.926;7.080;2024-01-15T03:55:54;21.87;;;12.37;;
10132;SDS011;5106;50.926;7.080;2024-01-15T03:58:20;20.50;;;12.63;;
10132;SDS011;5106;50.926;7.080;2024-01-15T04:00:46;23.67;;;13.57;;
10132;SDS011;5106;50.926;7.080;2024-01-15T04:03:11;20.47;;;12.60;;
10132;SDS011;5106;50.926;7.080;2024-01-15T04:05:37;22.87;;;13.47;;
10132;SDS011;5106;50.926;7.080;2024-01-15T04:08:03;21.90;;;13.37;;
10132;SDS011;5106;50.926;7.080;2024-01-15T04:10:29;21.07;;;12.77;;
10132;SDS011;5106;50.926;7.080;2024-01-15T04:12:55;22.33;;;13.60;;
10132;SDS011;5106;50.926;7.080;2024-01-15T04:15:20;21.13;;;12.50;;
10132;SDS011;5106;50.926;7.080;2024-01-15T04:17:46;20.37;;;13.03;;
10132;SDS011;5106;50.926;7.080;2024-01-15T04:20:12;23.53;;;13.23;;
10132;SDS011;5106;50.926;7.080;2024-01-15T04:22:37;22.00;;;13.10;;
10132;SDS011;5106;50.926;7.080;2024-01-15T04:25:06;21.63;;;13.40;;
10132;SDS011;5106;50.926;7.080;2024-01-15T04:27:32;21.80;;;12.47;;
10132;SDS011;5106;50.926;7.080;2024-01-15T04:29:57;17.13;;;11.87;;
10132;SDS011;5106;50.926;7.080;2024-01-15T04:32:23;22.10;;;12.93;;
10132;SDS011;5106;50.926;7.080;2024-01-15T04:34:48;22.00;;;12.80;;
10132;SDS011;5106;50.926;7.080;2024-01-15T04:37:14;19.73;;;12.20;;
10132;SDS011;5106;50.926;7.080;2024-01-15T04:39:39;21.50;;;12.20;;
10132;SDS011;5106;50.926;7.080;2024-01-15T04:42:05;22.43;;;12.80;;
10132;SDS011;5106;50.926;7.080;2024-01-15T04:44:30;19.30;;;11.90;;
10132;SDS011;5106;50.926;7.080;2024-01-15T04:46:56;18.80;;;11.90;;
10132;SDS011;5106;50.926;7.080;2024-01-15T04:49:22;16.57;;;11.20;;
10132;SDS011;5106;50.926;7.080;2024-01-15T04:51:47;18.77;;;11.70;;
10132;SDS011;5106;50.926;7.080;2024-01-15T04:54:13;18.07;;;11.13;;
10132;SDS011;5106;50.926;7.080;2024-01-15T04:56:42;18.10;;;10.53;;
10132;SDS011;5106;50.926;7.080;2024-01-15T04:59:09;18.17;;;11.53;;
10132;SDS011;5106;50.926;7.080;2024-01-15T05:01:34;18.17;;;10.83;;
10132;SDS011;5106;50.926;7.080;2024-01-15T05:04:00;18.30;;;10.77;;
10132;SDS011;5106;50.926;7.080;2024-01-15T05:06:25;19.57;;;10.63;;
10132;SDS011;5106;50.926;7.080;2024-01-15T05:08:51;18.40;;;10.43;;
10132;SDS011;5106;50.926;7.080;2024-01-15T05:11:22;17.90;;;10.80;;
10132;SDS011;5106;50.926;7.080;2024-01-15T05:13:48;17.17;;;11.03;;
10132;SDS011;5106;50.926;7.080;2024-01-15T05:16:13;19.00;;;10.83;;
10132;SDS011;5106;50.926;7.080;2024-01-15T05:18:39;19.67;;;11.57;;
10132;SDS011;5106;50.926;7.080;2024-01-15T05:21:05;18.63;;;11.20;;
10132;SDS011;5106;50.926;7.080;2024-01-15T05:23:33;20.03;;;11.17;;
10132;SDS011;5106;50.926;7.080;2024-01-15T05:26:02;19.00;;;10.73;;
10132;SDS011;5106;50.926;7.080;2024-01-15T05:28:27;17.30;;;10.33;;
10132;SDS011;5106;50.926;7.080;2024-01-15T05:30:53;21.23;;;10.77;;
10132;SDS011;5106;50.926;7.080;2024-01-15T05:33:20;17.57;;;9.87;;
10132;SDS011;5106;50.926;7.080;2024-01-15T05:35:47;14.33;;;9.80;;
10132;SDS011;5106;50.926;7.080;2024-01-15T05:38:14;16.60;;;9.47;;
10132;SDS011;5106;50.926;7.080;2024-01-15T05:40:39;16.83;;;9.97;;
10132;SDS011;5106;50.926;7.080;2024-01-15T05:43:05;17.47;;;9.77;;
10132;SDS011;5106;50.926;7.080;2024-01-15T05:45:30;16.37;;;9.87;;
10132;SDS011;5106;50.926;7.080;2024-01-15T05:47:56;14.10;;;9.27;;
10132;SDS011;5106;50.926;7.080;2024-01-15T05:50:22;15.77;;;9.13;;
10132;SDS011;5106;50.926;7.080;2024-01-15T05:52:47;15.37;;;8.90;;
10132;SDS011;5106;50.926;7.080;2024-01-15T05:55:13;14.60;;;8.80;;
10132;SDS011;5106;50.926;7.080;2024-01-15T05:57:39;13.07;;;8.43;;
10132;SDS011;5106;50.926;7.080;2024-01-15T06:00:05;14.47;;;9.30;;
10132;SDS011;5106;50.926;7.080;2024-01-15T06:02:31;13.87;;;8.23;;
10132;SDS011;5106;50.926;7.080;2024-01-15T06:04:56;13.10;;;8.43;;
10132;SDS011;5106;50.926;7.080;2024-01-15T06:07:22;14.43;;;8.63;;
10132;SDS011;5106;50.926;7.080;2024-01-15T06:09:48;14.47;;;8.93;;
10132;SDS011;5106;50.926;7.080;2024-01-15T06:12:13;13.80;;;8.10;;
10132;SDS011;5106;50.926;7.080;2024-01-15T06:14:57;15.03;;;8.60;;
10132;SDS011;5106;50.926;7.080;2024-01-15T06:17:23;11.83;;;8.03;;
10132;SDS011;5106;50.926;7.080;2024-01-15T06:19:48;14.93;;;8.23;;
10132;SDS011;5106;50.926;7.080;2024-01-15T06:22:14;13.90;;;8.13;;
10132;SDS011;5106;50.926;7.080;2024-01-15T06:24:39;16.40;;;8.53;;
10132;SDS011;5106;50.926;7.080;2024-01-15T06:27:06;12.10;;;8.10;;
10132;SDS011;5106;50.926;7.080;2024-01-15T06:29:32;12.37;;;8.57;;
10132;SDS011;5106;50.926;7.080;2024-01-15T06:31:57;13.13;;;8.50;;
10132;SDS011;5106;50.926;7.080;2024-01-15T06:34:23;12.50;;;9.03;;
10132;SDS011;5106;50.926;7.080;2024-01-15T06:36:49;13.63;;;9.57;;
10132;SDS011;5106;50.926;7.080;2024-01-15T06:39:14;14.87;;;8.87;;
10132;SDS011;5106;50.926;7.080;2024-01-15T06:41:40;13.90;;;8.80;;
10132;SDS011;5106;50.926;7.080;2024-01-15T06:44:12;13.20;;;9.47;;
10132;SDS011;5106;50.926;7.080;2024-01-15T06:46:43;15.33;;;9.27;;
10132;SDS011;5106;50.926;7.080;2024-01-15T06:49:10;14.87;;;9.60;;
10132;SDS011;5106;50.926;7.080;2024-01-15T06:51:36;16.53;;;8.90;;
10132;SDS011;5106;50.926;7.080;2024-01-15T06:54:02;12.43;;;8.73;;
10132;SDS011;5106;50.926;7.080;2024-01-15T06:56:28;13.33;;;9.43;;
10132;SDS011;5106;50.926;7.080;2024-01-15T06:58:53;13.67;;;9.53;;
10132;SDS011;5106;50.926;7.080;2024-01-15T07:01:19;14.23;;;9.97;;
10132;SDS011;5106;50.926;7.080;2024-01-15T07:03:45;18.20;;;9.73;;
10132;SDS011;5106;50.926;7.080;2024-01-15T07:06:11;12.40;;;9.40;;
10132;SDS011;5106;50.926;7.080;2024-01-15T07:08:37;17.80;;;10.43;;
10132;SDS011;5106;50.926;7.080;2024-01-15T07:11:03;16.87;;;10.60;;
10132;SDS011;5106;50.926;7.080;2024-01-15T07:13:30;14.43;;;9.67;;
10132;SDS011;5106;50.926;7.080;2024-01-15T07:15:56;17.80;;;10.83;;
10132;SDS011;5106;50.926;7.080;2024-01-15T07:18:21;16.87;;;10.67;;
10132;SDS011;5106;50.926;7.080;2024-01-15T07:20:47;16.23;;;10.00;;
10132;SDS011;5106;50.926;7.080;2024-01-15T07:23:13;14.90;;;9.67;;
10132;SDS011;5106;50.926;7.080;2024-01-15T07:25:38;18.23;;;10.43;;
10132;SDS011;5106;50.926;7.080;2024-01-15T07:28:04;14.33;;;9.73;;
10132;SDS011;5106;50.926;7.080;2024-01-15T07:30:30;14.03;;;9.30;;
10132;SDS011;5106;50.926;7.080;2024-01-15T07:32:55;15.23;;;9.20;;
10132;SDS011;5106;50.926;7.080;2024-01-15T07:35:21;17.20;;;9.93;;
10132;SDS011;5106;50.926;7.080;2024-01-15T07:37:47;14.93;;;9.57;;
10132;SDS011;5106;50.926;7.080;2024-01-15T07:40:12;15.63;;;10.00;;
10132;SDS011;5106;50.926;7.080;2024-01-15T07:42:38;14.27;;;9.37;;
10132;SDS011;5106;50.926;7.080;2024-01-15T07:45:04;15.27;;;10.27;;
10132;SDS011;5106;50.926;7.080;2024-01-15T07:47:30;17.03;;;10.30;;
10132;SDS011;5106;50.926;7.080;2024-01-15T07:49:55;16.57;;;10.53;;
10132;SDS011;5106;50.926;7.080;2024-01-15T07:52:21;14.73;;;9.60;;
10132;SDS011;5106;50.926;7.080;2024-01-15T07:54:46;15.17;;;10.57;;
10132;SDS011;5106;50.926;7.080;2024-01-15T07:57:12;17.87;;;10.90;;
10132;SDS011;5106;50.926;7.080;2024-01-15T07:59:38;16.93;;;11.00;;
10132;SDS011;5106;50.926;7.080;2024-01-15T08:02:05;14.17;;;10.27;;
10132;SDS011;5106;50.926;7.080;2024-01-15T08:04:31;13.47;;;9.77;;
10132;SDS011;5106;50.926;7.080;2024-01-15T08:06:56;16.33;;;10.63;;
10132;SDS011;5106;50.926;7.080;2024-01-15T08:09:22;17.57;;;10.47;;
10132;SDS011;5106;50.926;7.080;2024-01-15T08:11:48;17.50;;;10.80;;
10132;SDS011;5106;50.926;7.080;2024-01-15T08:14:17;20.17;;;11.90;;
10132;SDS011;5106;50.926;7.080;2024-01-15T08:16:43;17.90;;;11.70;;
10132;SDS011;5106;50.926;7.080;2024-01-15T08:19:08;18.57;;;11.67;;
10132;SDS011;5106;50.926;7.080;2024-01-15T08:21:34;17.07;;;11.80;;
10132;SDS011;5106;50.926;7.080;2024-01-15T08:24:00;18.20;;;11.90;;
10132;SDS011;5106;50.926;7.080;2024-01-15T08:26:27;19.33;;;12.40;;
10132;SDS011;5106;50.926;7.080;2024-01-15T08:28:53;18.13;;;11.60;;
10132;SDS011;5106;50.926;7.080;2024-01-15T08:31:18;17.97;;;12.20;;
10132;SDS011;5106;50.926;7.080;2024-01-15T08:33:44;18.83;;;12.47;;
10132;SDS011;5106;50.926;7.080;2024-01-15T08:36:10;17.93;;;12.10;;
10132;SDS011;5106;50.926;7.080;2024-01-15T08:38:35;18.13;;;12.27;;
10132;SDS011;5106;50.926;7.080;2024-01-15T08:41:01;22.13;;;12.27;;
10132;SDS011;5106;50.926;7.080;2024-01-15T08:43:27;15.27;;;10.57;;
10132;SDS011;5106;50.926;7.080;2024-01-15T08:45:52;15.73;;;10.73;;
10132;SDS011;5106;50.926;7.080;2024-01-15T08:48:18;15.63;;;11.20;;
10132;SDS011;5106;50.926;7.080;2024-01-15T08:50:44;18.67;;;10.37;;
10132;SDS011;5106;50.926;7.080;2024-01-15T08:53:13;14.97;;;9.90;;
10132;SDS011;5106;50.926;7.080;2024-01-15T08:55:39;15.67;;;10.17;;
10132;SDS011;5106;50.926;7.080;2024-01-15T08:58:07;13.47;;;9.80;;
10132;SDS011;5106;50.926;7.080;2024-01-15T09:00:33;18.63;;;11.27;;
10132;SDS011;5106;50.926;7.080;2024-01-15T09:02:59;15.93;;;10.73;;
10132;SDS011;5106;50.926;7.080;2024-01-15T09:05:24;17.87;;;10.30;;
10132;SDS011;5106;50.926;7.080;2024-01-15T09:07:50;18.23;;;10.00;;
10132;SDS011;5106;50.926;7.080;2024-01-15T09:10:17;15.27;;;10.00;;
10132;SDS011;5106;50.926;7.080;2024-01-15T09:12:43;12.70;;;9.30;;
10132;SDS011;5106;50.926;7.080;2024-01-15T09:15:08;14.37;;;9.57;;
10132;SDS011;5106;50.926;7.080;2024-01-15T09:17:34;16.53;;;10.27;;
10132;SDS011;5106;50.926;7.080;2024-01-15T09:20:00;15.57;;;10.03;;
10132;SDS011;5106;50.926;7.080;2024-01-15T09:22:26;13.37;;;10.33;;
10132;SDS011;5106;50.926;7.080;2024-01-15T09:24:52;14.30;;;9.10;;
10132;SDS011;5106;50.926;7.080;2024-01-15T09:27:17;15.63;;;9.50;;
10132;SDS011;5106;50.926;7.080;2024-01-15T09:29:43;10.87;;;8.63;;
10132;SDS011;5106;50.926;7.080;2024-01-15T09:32:10;11.87;;;8.60;;
10132;SDS011;5106;50.926;7.080;2024-01-15T09:34:37;12.40;;;8.07;;
10132;SDS011;5106;50.926;7.080;2024-01-15T09:37:02;14.80;;;7.63;;
10132;SDS011;5106;50.926;7.080;2024-01-15T09:39:29;14.27;;;8.37;;
10132;SDS011;5106;50.926;7.080;2024-01-15T09:41:55;12.17;;;8.00;;
10132;SDS011;5106;50.926;7.080;2024-01-15T09:44:21;9.73;;;7.27;;
10132;SDS011;5106;50.926;7.080;2024-01-15T09:46:47;11.27;;;7.70;;
10132;SDS011;5106;50.926;7.080;2024-01-15T09:49:15;12.97;;;6.93;;
10132;SDS011;5106;50.926;7.080;2024-01-15T09:51:41;8.40;;;6.60;;
10132;SDS011;5106;50.926;7.080;2024-01-15T09:54:07;12.67;;;7.17;;
10132;SDS011;5106;50.926;7.080;2024-01-15T09:56:34;9.63;;;6.90;;
10132;SDS011;5106;50.926;7.080;2024-01-15T09:59:00;8.83;;;6.50;;
10132;SDS011;5106;50.926;7.080;2024-01-15T10:01:26;7.07;;;5.97;;
10132;SDS011;5106;50.926;7.080;2024-01-15T10:03:54;6.93;;;5.33;;
10132;SDS011;5106;50.926;7.080;2024-01-15T10:06:21;8.43;;;5.97;;
10132;SDS011;5106;50.926;7.080;2024-01-15T10:08:48;8.37;;;6.37;;
10132;SDS011;5106;50.926;7.080;2024-01-15T10:11:16;9.00;;;5.80;;
10132;SDS011;5106;50.926;7.080;2024-01-15T10:13:46;8.37;;;6.43;;
10132;SDS011;5106;50.926;7.080;2024-01-15T10:16:12;11.47;;;6.17;;
10132;SDS011;5106;50.926;7.080;2024-01-15T10:18:38;6.73;;;5.63;;
10132;SDS011;5106;50.926;7.080;2024-01-15T10:21:06;10.03;;;6.53;;
10132;SDS011;5106;50.926;7.080;2024-01-15T10:23:32;9.43;;;5.90;;
10132;SDS011;5106;50.926;7.080;2024-01-15T10:25:58;8.70;;;6.60;;
10132;SDS011;5106;50.926;7.080;2024-01-15T10:28:25;6.37;;;5.37;;
10132;SDS011;5106;50.926;7.080;2024-01-15T10:30:52;7.93;;;5.97;;
10132;SDS011;5106;50.926;7.080;2024-01-15T10:33:22;7.43;;;5.40;;
10132;SDS011;5106;50.926;7.080;2024-01-15T10:35:50;5.60;;;4.63;;
10132;SDS011;5106;50.926;7.080;2024-01-15T10:38:22;5.53;;;4.30;;
10132;SDS011;5106;50.926;7.080;2024-01-15T10:40:55;6.40;;;4.13;;
10132;SDS011;5106;50.926;7.080;2024-01-15T10:43:21;5.57;;;4.27;;
10132;SDS011;5106;50.926;7.080;2024-01-15T10:45:48;6.60;;;4.97;;
10132;SDS011;5106;50.926;7.080;2024-01-15T10:48:16;5.90;;;4.27;;
10132;SDS011;5106;50.926;7.080;2024-01-15T10:50:42;6.93;;;4.43;;
10132;SDS011;5106;50.926;7.080;2024-01-15T10:53:13;6.73;;;4.70;;
10132;SDS011;5106;50.926;7.080;2024-01-15T10:55:42;8.00;;;4.80;;
10132;SDS011;5106;50.926;7.080;2024-01-15T10:58:08;5.53;;;4.50;;
10132;SDS011;5106;50.926;7.080;2024-01-15T11:00:37;6.70;;;4.90;;
10132;SDS011;5106;50.926;7.080;2024-01-15T11:03:04;6.00;;;4.77;;
10132;SDS011;5106;50.926;7.080;2024-01-15T11:05:36;7.93;;;5.03;;
10132;SDS011;5106;50.926;7.080;2024-01-15T11:08:11;5.57;;;4.07;;
10132;SDS011;5106;50.926;7.080;2024-01-15T11:10:43;6.73;;;3.77;;
10132;SDS011;5106;50.926;7.080;2024-01-15T11:13:14;6.10;;;4.27;;
10132;SDS011;5106;50.926;7.080;2024-01-15T11:16:05;5.23;;;4.07;;
10132;SDS011;5106;50.926;7.080;2024-01-15T11:28:57;4.00;;;3.27;;
10132;SDS011;5106;50.926;7.080;2024-01-15T11:33:54;6.27;;;3.60;;
10132;SDS011;5106;50.926;7.080;2024-01-15T11:36:20;4.83;;;3.60;;
10132;SDS011;5106;50.926;7.080;2024-01-15T11:39:49;6.70;;;3.20;;
10132;SDS011;5106;50.926;7.080;2024-01-15T11:41:58;4.50;;;3.03;;
10132;SDS011;5106;50.926;7.080;2024-01-15T11:44:28;3.53;;;2.90;;
10132;SDS011;5106;50.926;7.080;2024-01-15T11:46:59;4.17;;;3.07;;
10132;SDS011;5106;50.926;7.080;2024-01-15T11:52:20;4.40;;;3.10;;
10132;SDS011;5106;50.926;7.080;2024-01-15T11:54:55;5.20;;;3.40;;
10132;SDS011;5106;50.926;7.080;2024-01-15T12:00:33;5.60;;;3.73;;
10132;SDS011;5106;50.926;7.080;2024-01-15T12:02:59;5.20;;;4.03;;
10132;SDS011;5106;50.926;7.080;2024-01-15T12:05:27;5.27;;;3.80;;
10132;SDS011;5106;50.926;7.080;2024-01-15T12:07:52;6.10;;;4.77;;
10132;SDS011;5106;50.926;7.080;2024-01-15T12:10:19;7.67;;;4.37;;
10132;SDS011;5106;50.926;7.080;2024-01-15T12:15:30;5.67;;;5.00;;
10132;SDS011;5106;50.926;7.080;2024-01-15T12:17:57;6.70;;;5.30;;
10132;SDS011;5106;50.926;7.080;2024-01-15T12:20:24;7.40;;;5.70;;
10132;SDS011;5106;50.926;7.080;2024-01-15T12:22:51;9.63;;;6.00;;
10132;SDS011;5106;50.926;7.080;2024-01-15T12:25:16;7.07;;;5.07;;
10132;SDS011;5106;50.926;7.080;2024-01-15T12:27:42;8.40;;;5.43;;
10132;SDS011;5106;50.926;7.080;2024-01-15T12:30:10;7.77;;;5.60;;
10132;SDS011;5106;50.926;7.080;2024-01-15T12:32:37;9.33;;;6.13;;
10132;SDS011;5106;50.926;7.080;2024-01-15T12:35:03;6.30;;;5.30;;
10132;SDS011;5106;50.926;7.080;2024-01-15T12:37:29;10.03;;;6.20;;
10132;SDS011;5106;50.926;7.080;2024-01-15T12:39:55;10.20;;;5.50;;
10132;SDS011;5106;50.926;7.080;2024-01-15T12:42:21;8.37;;;5.60;;
10132;SDS011;5106;50.926;7.080;2024-01-15T12:44:46;8.20;;;5.30;;
10132;SDS011;5106;50.926;7.080;2024-01-15T12:47:12;9.00;;;5.30;;
10132;SDS011;5106;50.926;7.080;2024-01-15T12:49:39;7.20;;;5.33;;
10132;SDS011;5106;50.926;7.080;2024-01-15T12:52:07;9.27;;;5.00;;
10132;SDS011;5106;50.926;7.080;2024-01-15T12:54:34;7.30;;;4.47;;
10132;SDS011;5106;50.926;7.080;2024-01-15T12:56:59;6.47;;;4.10;;
10132;SDS011;5106;50.926;7.080;2024-01-15T12:59:25;6.63;;;4.37;;
10132;SDS011;5106;50.926;7.080;2024-01-15T13:01:51;8.83;;;4.07;;
10132;SDS011;5106;50.926;7.080;2024-01-15T13:04:23;6.97;;;4.10;;
10132;SDS011;5106;50.926;7.080;2024-01-15T13:06:50;8.17;;;4.17;;
10132;SDS011;5106;50.926;7.080;2024-01-15T13:09:16;8.17;;;4.00;;
10132;SDS011;5106;50.926;7.080;2024-01-15T13:11:45;6.23;;;3.80;;
10132;SDS011;5106;50.926;7.080;2024-01-15T13:14:12;6.73;;;3.83;;
10132;SDS011;5106;50.926;7.080;2024-01-15T13:16:40;7.33;;;3.77;;
10132;SDS011;5106;50.926;7.080;2024-01-15T13:19:07;6.47;;;3.60;;
10132;SDS011;5106;50.926;7.080;2024-01-15T13:21:39;5.53;;;3.47;;
10132;SDS011;5106;50.926;7.080;2024-01-15T13:24:05;5.93;;;3.40;;
10132;SDS011;5106;50.926;7.080;2024-01-15T13:26:32;5.87;;;3.57;;
10132;SDS011;5106;50.926;7.080;2024-01-15T13:29:01;6.20;;;3.30;;
10132;SDS011;5106;50.926;7.080;2024-01-15T13:31:28;6.07;;;3.40;;
10132;SDS011;5106;50.926;7.080;2024-01-15T13:33:54;4.97;;;2.60;;
10132;SDS011;5106;50.926;7.080;2024-01-15T13:36:21;4.07;;;2.80;;
10132;SDS011;5106;50.926;7.080;2024-01-15T13:38:50;4.07;;;2.77;;
10132;SDS011;5106;50.926;7.080;2024-01-15T13:41:17;7.93;;;3.20;;
10132;SDS011;5106;50.926;7.080;2024-01-15T13:44:03;3.90;;;2.50;;
10132;SDS011;5106;50.926;7.080;2024-01-15T13:46:29;5.27;;;2.57;;
10132;SDS011;5106;50.926;7.080;2024-01-15T13:48:54;3.47;;;2.50;;
10132;SDS011;5106;50.926;7.080;2024-01-15T13:51:23;6.03;;;2.60;;
10132;SDS011;5106;50.926;7.080;2024-01-15T13:53:49;5.90;;;2.77;;
10132;SDS011;5106;50.926;7.080;2024-01-15T13:56:15;4.87;;;2.30;;
10132;SDS011;5106;50.926;7.080;2024-01-15T13:58:41;5.47;;;2.23;;
10132;SDS011;5106;50.926;7.080;2024-01-15T14:01:07;3.67;;;2.30;;
10132;SDS011;5106;50.926;7.080;2024-01-15T14:03:33;4.40;;;2.30;;
10132;SDS011;5106;50.926;7.080;2024-01-15T14:05:59;5.03;;;2.10;;
10132;SDS011;5106;50.926;7.080;2024-01-15T14:08:28;3.73;;;1.73;;
10132;SDS011;5106;50.926;7.080;2024-01-15T14:10:53;2.47;;;1.60;;
10132;SDS011;5106;50.926;7.080;2024-01-15T14:13:20;2.63;;;1.80;;
10132;SDS011;5106;50.926;7.080;2024-01-15T14:15:46;3.13;;;1.90;;
10132;SDS011;5106;50.926;7.080;2024-01-15T14:18:14;2.70;;;1.60;;
10132;SDS011;5106;50.926;7.080;2024-01-15T14:20:40;3.67;;;2.00;;
10132;SDS011;5106;50.926;7.080;2024-01-15T14:23:06;3.30;;;1.70;;
10132;SDS011;5106;50.926;7.080;2024-01-15T14:25:31;1.80;;;1.67;;
10132;SDS011;5106;50.926;7.080;2024-01-15T14:27:57;2.67;;;1.70;;
10132;SDS011;5106;50.926;7.080;2024-01-15T14:30:23;2.33;;;1.70;;
10132;SDS011;5106;50.926;7.080;2024-01-15T14:32:49;2.70;;;1.60;;
10132;SDS011;5106;50.926;7.080;2024-01-15T14:35:14;1.73;;;1.60;;
10132;SDS011;5106;50.926;7.080;2024-01-15T14:37:40;3.43;;;2.10;;
10132;SDS011;5106;50.926;7.080;2024-01-15T14:40:06;2.03;;;1.83;;
10132;SDS011;5106;50.926;7.080;2024-01-15T14:42:35;3.53;;;2.00;;
10132;SDS011;5106;50.926;7.080;2024-01-15T14:47:37;3.27;;;2.50;;
10132;SDS011;5106;50.926;7.080;2024-01-15T14:50:05;3.40;;;2.10;;
10132;SDS011;5106;50.926;7.080;2024-01-15T14:52:35;3.03;;;1.80;;
10132;SDS011;5106;50.926;7.080;2024-01-15T14:55:01;3.03;;;2.10;;
10132;SDS011;5106;50.926;7.080;2024-01-15T14:57:27;3.13;;;2.00;;
10132;SDS011;5106;50.926;7.080;2024-01-15T14:59:53;3.20;;;2.30;;
10132;SDS011;5106;50.926;7.080;2024-01-15T15:02:19;3.77;;;2.23;;
10132;SDS011;5106;50.926;7.080;2024-01-15T15:04:45;2.57;;;2.37;;
10132;SDS011;5106;50.926;7.080;2024-01-15T15:07:10;3.53;;;2.20;;